Time;durP1;ratioP1;P1;durP2;ratioP2;P2;SDS_P1;SDS_P2;PMS_P1;PMS_P2;Temp;Humidity;BMP_temperature;BMP_pressure;BME280_temperature;BME280_humidity;BME280_pressure;Samples;Min_cycle;Max_cycle;Signal;HPM_P1;HPM_P2
2023/07/10 00:01:20;;;;;;;28.50;21.00;;;;;;;21.74;100.00;101884.81;4985818;28;20035;-73
2023/07/10 00:03:46;;;;;;;33.38;22.15;;;;;;;21.76;100.00;101876.50;4986326;28;20129;-73
2023/07/10 00:06:14;;;;;;;31.52;21.42;;;;;;;21.73;100.00;101880.34;4989435;28;20435;-73
2023/07/10 00:08:40;;;;;;;31.42;22.95;;;;;;;21.76;100.00;101863.78;4991513;28;20184;-73
2023/07/10 00:11:25;;;;;;;34.00;22.65;;;;;;;21.77;100.00;101862.78;4983701;28;20038;-73
2023/07/10 00:13:50;;;;;;;35.20;23.00;;;;;;;21.60;100.00;101871.69;4981535;28;20101;-73
2023/07/10 00:16:19;;;;;;;29.70;22.40;;;;;;;21.67;100.00;101872.81;4997697;28;20770;-73
2023/07/10 00:18:45;;;;;;;34.97;22.50;;;;;;;21.59;100.00;101869.97;4986862;28;20042;-73
2023/07/10 00:21:11;;;;;;;32.95;21.52;;;;;;;21.37;100.00;101876.53;4984159;28;20039;-74
2023/07/10 00:23:37;;;;;;;28.55;21.10;;;;;;;21.60;100.00;101877.97;4982701;28;20578;-74
2023/07/10 00:26:17;;;;;;;33.70;22.52;;;;;;;21.58;100.00;101865.50;4992165;28;20121;-73
2023/07/10 00:28:43;;;;;;;32.55;22.05;;;;;;;21.44;100.00;101862.25;4990850;28;20042;-73
2023/07/10 00:31:09;;;;;;;30.90;20.15;;;;;;;21.67;100.00;101870.09;4985702;28;20495;-73
2023/07/10 00:33:34;;;;;;;29.73;22.58;;;;;;;21.68;100.00;101871.78;4975266;28;20046;-73
2023/07/10 00:36:04;;;;;;;33.22;22.10;;;;;;;21.72;100.00;101881.38;4989261;28;20035;-73
2023/07/10 00:38:31;;;;;;;31.27;21.50;;;;;;;21.76;100.00;101876.50;4977760;28;20031;-72
2023/07/10 00:41:00;;;;;;;31.60;21.67;;;;;;;21.91;100.00;101873.19;4989645;28;20038;-73
2023/07/10 00:43:26;;;;;;;30.02;20.45;;;;;;;21.98;100.00;101893.31;4986521;28;20034;-74
2023/07/10 00:45:53;;;;;;;34.20;21.23;;;;;;;21.94;100.00;101883.78;4980215;28;20030;-73
2023/07/10 00:48:29;;;;;;;32.65;21.90;;;;;;;21.95;100.00;101881.91;4981579;28;20100;-73
2023/07/10 00:50:57;;;;;;;30.45;18.77;;;;;;;21.95;100.00;101885.50;4974384;28;20166;-72
2023/07/10 00:53:28;;;;;;;30.65;21.55;;;;;;;21.94;100.00;101883.78;4986907;28;20063;-74
2023/07/10 00:55:56;;;;;;;27.77;20.92;;;;;;;22.00;100.00;101887.78;4992754;28;20034;-73
2023/07/10 00:58:39;;;;;;;35.42;21.58;;;;;;;21.88;100.00;101888.91;4992268;28;20077;-73
2023/07/10 01:01:07;;;;;;;33.63;21.38;;;;;;;21.95;100.00;101887.34;4988068;28;20230;-74
2023/07/10 01:03:34;;;;;;;36.90;20.33;;;;;;;21.99;100.00;101883.34;4986449;28;20038;-73
2023/07/10 01:06:14;;;;;;;34.08;22.02;;;;;;;21.97;100.00;101878.03;4988008;28;20043;-72
2023/07/10 01:08:46;;;;;;;35.45;19.88;;;;;;;21.96;100.00;101881.75;4982221;28;20046;-72
2023/07/10 01:11:11;;;;;;;32.95;20.88;;;;;;;21.77;100.00;101884.50;4972008;28;20039;-73
2023/07/10 01:13:41;;;;;;;30.90;20.70;;;;;;;21.77;100.00;101870.94;4992087;28;20046;-74
2023/07/10 01:16:08;;;;;;;27.77;19.60;;;;;;;21.87;100.00;101868.19;4977631;28;20103;-73
2023/07/10 01:18:35;;;;;;;30.58;20.35;;;;;;;21.93;100.00;101868.47;4991723;28;20831;-72
2023/07/10 01:21:18;;;;;;;33.75;21.65;;;;;;;21.81;100.00;101869.63;4980291;28;20161;-73
2023/07/10 01:23:44;;;;;;;28.30;20.63;;;;;;;21.81;100.00;101866.94;4978094;28;20037;-73
2023/07/10 01:26:10;;;;;;;32.47;20.08;;;;;;;21.80;100.00;101869.78;4982757;28;20314;-72
2023/07/10 01:28:36;;;;;;;34.17;20.98;;;;;;;21.74;100.00;101876.66;4978677;28;20064;-72
2023/07/10 01:31:07;;;;;;;29.25;20.15;;;;;;;21.81;100.00;101874.22;4991748;28;20042;-73
2023/07/10 01:33:41;;;;;;;28.27;21.65;;;;;;;21.59;100.00;101868.09;4975545;28;20066;-72
2023/07/10 01:36:12;;;;;;;33.20;22.05;;;;;;;21.55;100.00;101873.97;4986970;28;20030;-72
2023/07/10 01:38:43;;;;;;;32.90;22.63;;;;;;;21.48;100.00;101886.38;4987070;28;20042;-73
2023/07/10 01:41:22;;;;;;;31.10;21.08;;;;;;;21.46;100.00;101887.38;4988060;28;20040;-72
2023/07/10 01:43:47;;;;;;;41.15;22.10;;;;;;;21.43;100.00;101901.22;4978088;28;20421;-73
2023/07/10 01:46:18;;;;;;;34.05;21.98;;;;;;;21.48;100.00;101902.66;4986529;28;20042;-72
2023/07/10 01:48:44;;;;;;;34.73;22.10;;;;;;;21.43;100.00;101906.66;4982666;28;20085;-73
2023/07/10 01:51:10;;;;;;;30.88;21.77;;;;;;;21.36;100.00;101901.94;4985570;28;20528;-73
2023/07/10 01:53:36;;;;;;;29.73;20.45;;;;;;;21.29;100.00;101906.22;4981304;28;20046;-72
2023/07/10 01:56:02;;;;;;;31.80;21.42;;;;;;;21.26;100.00;101914.63;4994308;28;20110;-74
2023/07/10 01:58:27;;;;;;;31.30;22.02;;;;;;;21.27;100.00;101909.03;4989054;28;20039;-73
2023/07/10 02:00:53;;;;;;;27.80;20.10;;;;;;;21.15;100.00;101902.88;4992359;28;20499;-74
2023/07/10 02:03:18;;;;;;;34.47;19.83;;;;;;;21.24;100.00;101906.63;4989289;28;20066;-73
2023/07/10 02:05:44;;;;;;;34.63;20.27;;;;;;;21.25;100.00;101908.34;4992639;28;20038;-73
2023/07/10 02:08:13;;;;;;;29.98;20.25;;;;;;;21.23;100.00;101907.59;4985430;28;20030;-73
2023/07/10 02:10:38;;;;;;;29.55;18.17;;;;;;;21.26;100.00;101904.63;4987239;28;20080;-72
2023/07/10 02:13:04;;;;;;;27.33;18.40;;;;;;;21.15;100.00;101894.75;4991230;28;20045;-73
2023/07/10 02:15:29;;;;;;;22.90;17.88;;;;;;;21.12;100.00;101891.44;4990043;28;20066;-72
2023/07/10 02:17:57;;;;;;;27.33;17.90;;;;;;;21.17;100.00;101900.88;4980013;28;20046;-73
2023/07/10 02:20:24;;;;;;;32.25;16.85;;;;;;;21.19;100.00;101898.06;4980686;28;20844;-74
2023/07/10 02:22:51;;;;;;;24.10;16.20;;;;;;;21.30;100.00;101914.22;4986254;28;20450;-73
2023/07/10 02:25:16;;;;;;;26.08;15.73;;;;;;;21.41;100.00;101908.66;4984276;28;20429;-72
2023/07/10 02:27:42;;;;;;;27.15;17.75;;;;;;;21.45;100.00;101899.25;5004796;28;20129;-72
2023/07/10 02:30:08;;;;;;;28.30;16.30;;;;;;;21.39;100.00;101891.69;4978167;28;20821;-71
2023/07/10 02:32:34;;;;;;;23.77;15.55;;;;;;;21.47;100.00;101882.81;4979272;28;20138;-72
2023/07/10 02:34:59;;;;;;;21.50;16.10;;;;;;;21.42;100.00;101888.66;4982287;28;20229;-72
2023/07/10 02:37:25;;;;;;;24.67;15.93;;;;;;;21.36;100.00;101886.53;4987483;28;20480;-73
2023/07/10 02:39:50;;;;;;;22.08;16.00;;;;;;;21.40;100.00;101892.53;4994592;28;20085;-73
2023/07/10 02:42:16;;;;;;;23.88;15.02;;;;;;;21.49;100.00;101888.09;4988950;28;20982;-73
2023/07/10 02:44:41;;;;;;;23.73;16.77;;;;;;;21.48;100.00;101889.09;4995634;28;20038;-73
2023/07/10 02:47:07;;;;;;;23.77;15.82;;;;;;;21.52;100.00;101893.25;4989026;28;20491;-73
2023/07/10 02:49:33;;;;;;;26.25;15.93;;;;;;;21.60;100.00;101893.38;5003131;28;20045;-73
2023/07/10 02:51:58;;;;;;;24.10;15.63;;;;;;;21.65;100.00;101899.25;4992018;28;20630;-72
2023/07/10 02:54:24;;;;;;;24.88;15.68;;;;;;;21.58;100.00;101906.22;4992481;28;20034;-72
2023/07/10 02:56:49;;;;;;;20.30;15.88;;;;;;;21.68;100.00;101907.94;4992285;28;20042;-71
2023/07/10 02:59:15;;;;;;;24.15;16.42;;;;;;;21.58;100.00;101919.81;5007891;28;20340;-72
2023/07/10 03:01:41;;;;;;;23.52;14.75;;;;;;;21.63;100.00;101906.66;4992271;28;20908;-72
2023/07/10 03:04:06;;;;;;;30.13;15.65;;;;;;;21.69;100.00;101909.69;4993990;28;20514;-72
2023/07/10 03:06:32;;;;;;;21.92;14.40;;;;;;;21.72;100.00;101906.66;5011111;28;20145;-72
2023/07/10 03:08:58;;;;;;;22.55;16.00;;;;;;;21.71;100.00;101917.66;4995466;28;20133;-72
2023/07/10 03:11:24;;;;;;;25.42;15.55;;;;;;;21.73;100.00;101926.53;5001701;28;20181;-73
2023/07/10 03:13:49;;;;;;;24.60;15.77;;;;;;;21.70;100.00;101924.97;4988950;28;20550;-72
2023/07/10 03:16:16;;;;;;;21.17;16.10;;;;;;;21.71;100.00;101923.09;4988426;28;20065;-71
2023/07/10 03:18:42;;;;;;;25.33;14.52;;;;;;;21.76;100.00;101925.38;4981866;28;20131;-73
2023/07/10 03:21:08;;;;;;;22.52;14.60;;;;;;;21.66;100.00;101915.38;4983548;28;20740;-73
2023/07/10 03:23:33;;;;;;;22.67;15.13;;;;;;;21.69;100.00;101917.81;4979836;28;20058;-73
2023/07/10 03:25:59;;;;;;;26.25;15.45;;;;;;;21.57;100.00;101905.38;4982917;28;21186;-72
2023/07/10 03:28:25;;;;;;;22.92;14.60;;;;;;;21.67;100.00;101919.81;4987220;28;20046;-72
2023/07/10 03:30:51;;;;;;;25.30;14.70;;;;;;;21.55;100.00;101925.53;4986591;28;20510;-72
2023/07/10 03:33:17;;;;;;;21.58;15.13;;;;;;;21.51;100.00;101935.81;4976429;28;20483;-75
2023/07/10 03:35:48;;;;;;;24.77;14.82;;;;;;;21.53;100.00;101935.66;5004895;28;20772;-73
2023/07/10 03:38:15;;;;;;;24.20;15.15;;;;;;;21.54;100.00;101935.53;4987316;28;20121;-72
2023/07/10 03:40:56;;;;;;;20.90;15.07;;;;;;;21.57;100.00;101937.09;4989782;28;20049;-73
2023/07/10 03:43:22;;;;;;;21.40;14.65;;;;;;;21.50;100.00;101941.38;4991373;28;20042;-73
2023/07/10 03:45:48;;;;;;;24.83;13.43;;;;;;;21.43;100.00;101941.94;4983626;28;20066;-74
2023/07/10 03:48:14;;;;;;;23.45;13.40;;;;;;;21.50;100.00;101944.09;4983261;28;20039;-72
2023/07/10 03:50:40;;;;;;;15.85;11.55;;;;;;;21.41;100.00;101949.38;4975859;28;20830;-73
2023/07/10 03:53:06;;;;;;;24.95;11.63;;;;;;;21.53;100.00;101950.09;4983665;28;20042;-72
2023/07/10 03:55:31;;;;;;;17.35;12.32;;;;;;;21.41;100.00;101945.81;5004196;28;20548;-73
2023/07/10 03:57:57;;;;;;;18.42;11.40;;;;;;;21.45;100.00;101939.09;4984814;28;20745;-72
2023/07/10 04:00:23;;;;;;;18.38;11.98;;;;;;;21.58;100.00;101952.38;4974616;28;20881;-72
2023/07/10 04:02:48;;;;;;;19.33;11.18;;;;;;;21.56;100.00;101957.09;4979510;28;20439;-73
2023/07/10 04:05:14;;;;;;;13.80;9.90;;;;;;;21.51;100.00;101964.81;4993014;28;20065;-72
2023/07/10 04:07:39;;;;;;;19.95;11.45;;;;;;;21.53;100.00;101958.22;4993116;28;20046;-72
2023/07/10 04:10:05;;;;;;;11.77;8.75;;;;;;;21.50;100.00;101957.69;4973409;28;20038;-73
2023/07/10 04:12:31;;;;;;;15.52;9.18;;;;;;;21.37;100.00;101958.78;4980990;28;20415;-72
2023/07/10 04:14:56;;;;;;;12.35;8.20;;;;;;;21.42;100.00;101958.38;4979467;28;20543;-73
2023/07/10 04:17:22;;;;;;;13.45;7.97;;;;;;;21.33;100.00;101959.19;4989912;28;20052;-73
2023/07/10 04:19:48;;;;;;;14.73;8.00;;;;;;;21.45;100.00;101967.09;4992522;28;20046;-73
2023/07/10 04:22:13;;;;;;;14.48;7.80;;;;;;;21.44;100.00;101959.97;4987293;28;20109;-73
2023/07/10 04:24:39;;;;;;;17.50;8.23;;;;;;;21.37;100.00;101963.34;4993834;28;20042;-72
2023/07/10 04:27:05;;;;;;;14.75;7.63;;;;;;;21.33;100.00;101960.06;4984558;28;20523;-73
2023/07/10 04:29:31;;;;;;;13.07;6.93;;;;;;;21.28;100.00;101958.72;4987703;28;20046;-72
2023/07/10 04:31:56;;;;;;;11.00;7.07;;;;;;;21.32;100.00;101963.78;4987407;28;20070;-73
2023/07/10 04:34:22;;;;;;;16.45;7.30;;;;;;;21.28;100.00;101965.00;4989407;28;20030;-73
2023/07/10 04:36:47;;;;;;;14.85;7.65;;;;;;;21.38;100.00;101971.34;4981918;28;20114;-72
2023/07/10 04:39:13;;;;;;;12.55;7.43;;;;;;;21.27;100.00;101970.59;4985733;28;20034;-72
2023/07/10 04:41:39;;;;;;;12.18;6.60;;;;;;;21.37;100.00;101980.50;4989205;28;20043;-73
2023/07/10 04:44:05;;;;;;;9.90;6.68;;;;;;;21.44;100.00;101980.81;5004028;28;20218;-73
2023/07/10 04:46:31;;;;;;;11.20;6.85;;;;;;;21.39;100.00;101985.81;4992717;28;20077;-73
2023/07/10 04:48:56;;;;;;;11.02;6.50;;;;;;;21.27;100.00;101981.44;4982005;28;20082;-73
2023/07/10 04:51:22;;;;;;;12.10;6.45;;;;;;;21.25;100.00;101976.16;4982120;28;20038;-73
2023/07/10 04:53:48;;;;;;;15.15;7.78;;;;;;;21.34;100.00;101982.66;4987963;28;20879;-72
2023/07/10 04:56:15;;;;;;;11.98;6.57;;;;;;;21.38;100.00;101970.50;4983007;28;20134;-74
2023/07/10 04:58:59;;;;;;;11.30;7.05;;;;;;;21.34;100.00;101974.50;4985038;28;20040;-73
2023/07/10 05:01:28;;;;;;;12.52;7.50;;;;;;;21.44;100.00;101972.69;4977271;28;20035;-73
2023/07/10 05:03:54;;;;;;;15.43;7.32;;;;;;;21.42;100.00;101975.50;4984690;28;20030;-72
2023/07/10 05:06:21;;;;;;;14.88;7.25;;;;;;;21.44;100.00;101972.69;4977746;28;20061;-73
2023/07/10 05:08:46;;;;;;;15.95;7.40;;;;;;;21.44;100.00;101968.09;4987146;28;20038;-73
2023/07/10 05:11:13;;;;;;;11.98;7.28;;;;;;;21.51;100.00;101971.09;4981139;28;20042;-74
2023/07/10 05:13:38;;;;;;;14.88;7.65;;;;;;;21.60;100.00;101972.97;5001125;28;20035;-74
2023/07/10 05:16:04;;;;;;;18.77;8.18;;;;;;;21.78;100.00;101977.69;4987104;28;20039;-72
2023/07/10 05:18:30;;;;;;;13.77;7.13;;;;;;;21.90;100.00;101974.69;4987656;28;21425;-73
2023/07/10 05:20:58;;;;;;;13.32;8.07;;;;;;;22.17;100.00;101984.00;4981134;28;20058;-73
2023/07/10 05:23:24;;;;;;;16.63;6.93;;;;;;;22.19;100.00;101980.16;4989293;28;20040;-72
2023/07/10 05:26:04;;;;;;;13.07;7.07;;;;;;;22.38;100.00;101976.50;4987862;28;20034;-72
2023/07/10 05:28:30;;;;;;;14.68;6.82;;;;;;;22.62;100.00;101973.31;4982911;28;21206;-72
2023/07/10 05:31:01;;;;;;;11.32;7.32;;;;;;;23.02;100.00;101974.91;4987297;28;20034;-72
2023/07/10 05:33:28;;;;;;;14.57;7.13;;;;;;;23.14;99.18;101973.66;4980365;28;20046;-72
2023/07/10 05:35:58;;;;;;;9.63;6.65;;;;;;;22.88;100.00;101975.34;4982931;28;20066;-72
2023/07/10 05:38:27;;;;;;;10.43;6.78;;;;;;;22.66;100.00;101974.72;4981426;28;20041;-74
2023/07/10 05:40:53;;;;;;;10.95;6.90;;;;;;;23.03;100.00;101986.63;4990780;28;20041;-73
2023/07/10 05:43:20;;;;;;;14.63;6.28;;;;;;;23.92;96.40;101984.91;5005348;28;20039;-72
2023/07/10 05:45:47;;;;;;;11.68;6.47;;;;;;;24.31;91.93;101990.00;4985246;28;20041;-73
2023/07/10 05:48:12;;;;;;;12.25;5.55;;;;;;;23.82;91.03;101995.03;4980633;28;20067;-73
2023/07/10 05:50:38;;;;;;;13.68;5.50;;;;;;;23.78;90.96;101988.19;4991333;28;20030;-72
2023/07/10 05:53:04;;;;;;;9.63;5.63;;;;;;;23.42;94.02;101992.72;4987792;28;20034;-72
2023/07/10 05:55:30;;;;;;;8.60;4.53;;;;;;;23.24;94.43;101993.56;4979922;28;20153;-72
2023/07/10 05:57:56;;;;;;;9.95;4.93;;;;;;;23.33;93.07;101989.03;4979680;28;20075;-73
2023/07/10 06:00:22;;;;;;;12.48;4.65;;;;;;;23.47;92.29;101993.97;4982863;28;20042;-73
2023/07/10 06:02:47;;;;;;;7.90;4.55;;;;;;;23.85;89.02;101989.28;4983410;28;20026;-73
2023/07/10 06:05:13;;;;;;;10.93;4.95;;;;;;;24.77;84.78;101983.34;4977532;28;20578;-72
2023/07/10 06:07:38;;;;;;;11.00;4.72;;;;;;;25.41;79.65;101983.81;4989670;28;20586;-73
2023/07/10 06:10:06;;;;;;;7.10;3.80;;;;;;;25.53;75.49;101984.34;4991832;28;20046;-73
2023/07/10 06:12:31;;;;;;;12.68;3.92;;;;;;;25.58;74.91;101985.53;4983150;28;20045;-74
2023/07/10 06:14:57;;;;;;;9.82;4.07;;;;;;;25.57;73.60;101989.31;4979908;28;20966;-74
2023/07/10 06:17:23;;;;;;;10.55;3.40;;;;;;;25.31;73.33;101988.56;4988843;28;20463;-74
2023/07/10 06:19:48;;;;;;;9.60;3.88;;;;;;;24.47;74.17;101994.75;4990971;28;20038;-73
2023/07/10 06:22:14;;;;;;;8.75;3.70;;;;;;;24.22;76.81;101990.97;4992871;28;20030;-74
2023/07/10 06:24:40;;;;;;;14.13;3.53;;;;;;;24.37;79.27;101989.41;4993343;28;20739;-74
2023/07/10 06:27:06;;;;;;;9.20;3.55;;;;;;;25.08;78.33;101985.56;4994552;28;20044;-73
2023/07/10 06:29:35;;;;;;;8.70;3.55;;;;;;;25.75;75.08;101994.66;4986059;28;20134;-73
2023/07/10 06:32:01;;;;;;;11.93;3.92;;;;;;;26.03;70.51;101980.69;4993367;28;20043;-74
2023/07/10 06:34:28;;;;;;;8.15;3.28;;;;;;;26.04;69.72;101988.69;4986666;28;20039;-74
2023/07/10 06:36:54;;;;;;;8.43;3.53;;;;;;;26.08;68.67;101992.81;4984931;28;20043;-74
2023/07/10 06:39:19;;;;;;;8.20;3.67;;;;;;;25.90;67.81;101991.25;4994157;28;20039;-73
2023/07/10 06:41:45;;;;;;;8.00;3.88;;;;;;;25.99;67.72;101985.63;4989639;28;20097;-73
2023/07/10 06:44:12;;;;;;;7.75;3.95;;;;;;;26.37;66.24;101987.84;4990257;28;20101;-73
2023/07/10 06:46:38;;;;;;;8.38;3.50;;;;;;;26.17;66.38;101987.34;5010449;28;20038;-73
2023/07/10 06:49:03;;;;;;;8.63;3.58;;;;;;;26.54;68.55;101990.38;4999013;28;20043;-72
2023/07/10 06:51:29;;;;;;;6.85;3.30;;;;;;;26.55;65.72;101993.97;4992367;28;20034;-74
2023/07/10 06:53:55;;;;;;;8.68;3.45;;;;;;;26.15;65.28;101997.59;4990528;28;20044;-73
2023/07/10 06:56:20;;;;;;;11.55;3.90;;;;;;;26.30;66.37;101996.72;4993399;28;20907;-73
2023/07/10 06:58:46;;;;;;;7.75;3.17;;;;;;;26.39;65.62;102000.31;4989254;28;20058;-73
2023/07/10 07:01:11;;;;;;;8.23;3.45;;;;;;;26.37;64.98;102002.38;4988837;28;20538;-74
2023/07/10 07:03:40;;;;;;;10.77;3.38;;;;;;;26.04;64.06;102007.84;5001034;28;20050;-74
2023/07/10 07:06:06;;;;;;;6.80;3.33;;;;;;;26.36;65.92;102000.66;4982057;28;20042;-74
2023/07/10 07:08:32;;;;;;;9.10;2.80;;;;;;;26.45;64.32;102005.09;4982504;28;20030;-74
2023/07/10 07:10:57;;;;;;;9.48;3.80;;;;;;;26.60;63.67;102002.53;4990871;28;20035;-74
2023/07/10 07:13:23;;;;;;;7.78;2.85;;;;;;;26.73;63.80;102002.84;4988485;28;20642;-73
2023/07/10 07:15:55;;;;;;;8.30;3.38;;;;;;;26.84;63.19;101999.72;4989096;28;20038;-73
2023/07/10 07:18:22;;;;;;;11.40;3.30;;;;;;;26.66;61.94;102007.31;4988581;28;20144;-73
2023/07/10 07:20:48;;;;;;;6.18;2.88;;;;;;;26.92;63.82;102000.75;4980872;28;20036;-73
2023/07/10 07:23:14;;;;;;;15.00;3.60;;;;;;;26.61;61.45;102007.00;4989294;28;20035;-72
2023/07/10 07:25:41;;;;;;;7.85;3.58;;;;;;;26.60;61.89;102003.38;4981377;28;20915;-74
2023/07/10 07:28:08;;;;;;;9.57;3.15;;;;;;;26.80;62.53;102009.31;4991071;28;20149;-73
2023/07/10 07:30:34;;;;;;;9.98;3.55;;;;;;;26.68;62.39;102012.59;4990393;28;20030;-73
2023/07/10 07:33:00;;;;;;;7.57;2.92;;;;;;;26.43;62.66;102018.13;4987870;28;20049;-75
2023/07/10 07:35:26;;;;;;;8.18;3.03;;;;;;;26.51;61.63;102014.53;4992887;28;20042;-75
2023/07/10 07:37:52;;;;;;;6.93;2.75;;;;;;;26.69;64.24;102019.78;4988050;28;20075;-73
2023/07/10 07:40:17;;;;;;;7.93;3.65;;;;;;;26.67;62.76;102019.13;5006126;28;20061;-74
2023/07/10 07:42:44;;;;;;;10.48;3.80;;;;;;;26.77;64.97;102008.81;5003007;28;20400;-72
2023/07/10 07:45:10;;;;;;;11.70;4.18;;;;;;;26.39;62.64;102026.81;4987323;28;20042;-74
2023/07/10 07:47:36;;;;;;;11.50;3.50;;;;;;;26.68;63.56;102010.72;4983451;28;20043;-72
2023/07/10 07:50:02;;;;;;;13.43;3.35;;;;;;;26.46;60.27;102019.66;4974832;28;20621;-73
2023/07/10 07:52:27;;;;;;;11.80;2.88;;;;;;;26.43;60.28;102017.28;5000226;28;20034;-74
2023/07/10 07:54:53;;;;;;;10.95;3.03;;;;;;;26.68;59.80;102023.56;4986436;28;20675;-73
2023/07/10 07:57:22;;;;;;;10.80;2.72;;;;;;;26.50;57.68;102021.84;4972585;28;20047;-73
2023/07/10 07:59:48;;;;;;;15.00;3.05;;;;;;;26.57;58.26;102020.16;4989028;28;20042;-73
2023/07/10 08:02:14;;;;;;;11.70;2.88;;;;;;;26.59;58.74;102018.09;4987423;28;20059;-73
2023/07/10 08:04:41;;;;;;;8.98;2.95;;;;;;;26.67;56.94;102013.66;4984227;28;20046;-73
2023/07/10 08:07:07;;;;;;;5.63;3.17;;;;;;;26.91;59.41;102009.97;4998566;28;20034;-72
2023/07/10 08:09:34;;;;;;;8.77;2.83;;;;;;;26.72;59.30;102012.09;4997912;28;20042;-73
2023/07/10 08:12:00;;;;;;;10.55;2.58;;;;;;;27.09;57.33;102014.22;4992012;28;20054;-72
2023/07/10 08:14:25;;;;;;;6.70;2.78;;;;;;;27.08;58.00;102012.50;4990661;28;20239;-73
2023/07/10 08:16:52;;;;;;;9.23;2.45;;;;;;;26.98;55.39;102006.34;4989354;28;20046;-73
2023/07/10 08:19:18;;;;;;;11.50;2.53;;;;;;;27.23;56.97;102017.25;4985167;28;20038;-73
2023/07/10 08:21:43;;;;;;;6.93;2.65;;;;;;;27.38;54.99;102018.19;4978871;28;20031;-72
2023/07/10 08:24:09;;;;;;;8.55;2.80;;;;;;;27.06;54.21;102009.06;4996848;28;20101;-73
2023/07/10 08:26:35;;;;;;;10.73;2.65;;;;;;;27.01;56.06;102005.13;4995060;28;20031;-74
2023/07/10 08:29:21;;;;;;;8.10;2.92;;;;;;;27.29;55.99;102013.78;4972058;28;20047;-74
2023/07/10 08:31:47;;;;;;;9.35;3.08;;;;;;;27.32;55.92;102013.44;4986246;28;20100;-73
2023/07/10 08:34:12;;;;;;;10.40;2.70;;;;;;;27.29;56.04;102009.16;4990103;28;20151;-73
2023/07/10 08:36:38;;;;;;;10.25;2.88;;;;;;;27.24;55.44;102013.47;4996165;28;20039;-73
2023/07/10 08:39:04;;;;;;;8.10;2.90;;;;;;;27.47;55.50;102013.53;4973047;28;20035;-73
2023/07/10 08:41:29;;;;;;;10.63;3.30;;;;;;;27.29;55.50;102016.53;4981327;28;20452;-73
2023/07/10 08:43:55;;;;;;;11.18;2.70;;;;;;;27.18;57.24;102014.19;4986518;28;20121;-75
2023/07/10 08:46:23;;;;;;;12.38;3.08;;;;;;;27.64;59.54;102009.66;4980444;28;20089;-74
2023/07/10 08:48:58;;;;;;;8.52;3.22;;;;;;;27.97;57.44;102009.47;4976867;28;20034;-73
2023/07/10 08:51:32;;;;;;;11.73;3.45;;;;;;;27.57;56.81;102015.00;4983902;28;20113;-73
2023/07/10 08:54:05;;;;;;;5.30;2.55;;;;;;;27.00;56.48;102014.38;4972240;28;20035;-74
2023/07/10 08:56:38;;;;;;;10.05;3.33;;;;;;;27.45;56.02;102018.31;4989436;28;20145;-74
2023/07/10 08:59:27;;;;;;;7.55;2.75;;;;;;;27.30;57.59;102007.28;4983196;28;20035;-75
2023/07/10 09:01:55;;;;;;;11.05;2.72;;;;;;;27.37;57.19;102013.75;4984021;28;20035;-74
2023/07/10 09:04:21;;;;;;;7.10;2.17;;;;;;;27.61;57.01;102012.75;4988791;28;20035;-74
2023/07/10 09:06:53;;;;;;;6.53;2.70;;;;;;;27.66;56.86;102009.47;4983739;28;20038;-74
2023/07/10 09:09:41;;;;;;;11.93;2.70;;;;;;;27.72;57.40;102015.13;4988993;28;20042;-73
2023/07/10 09:12:16;;;;;;;8.63;3.08;;;;;;;27.84;57.62;102016.41;4988133;28;20080;-73
2023/07/10 09:14:51;;;;;;;10.93;2.85;;;;;;;28.10;58.16;102017.91;4983137;28;20031;-73
2023/07/10 09:17:58;;;;;;;7.63;3.45;;;;;;;28.16;58.12;102013.56;4987269;28;20361;-73
2023/07/10 09:20:24;;;;;;;7.43;3.15;;;;;;;28.43;58.85;102014.94;4964859;28;20131;-73
2023/07/10 09:23:13;;;;;;;14.52;3.30;;;;;;;28.32;56.92;102010.72;4990517;28;20034;-73
2023/07/10 09:25:39;;;;;;;11.32;2.78;;;;;;;28.45;58.49;102010.94;4983054;28;20142;-72
2023/07/10 09:28:04;;;;;;;11.80;2.97;;;;;;;28.20;57.39;102007.53;4999925;28;20459;-73
2023/07/10 09:30:48;;;;;;;10.20;3.05;;;;;;;28.21;57.98;102024.84;4985393;28;20124;-72
2023/07/10 09:33:14;;;;;;;11.98;3.15;;;;;;;28.21;56.98;102024.84;4986383;28;20042;-73
2023/07/10 09:35:42;;;;;;;7.80;2.88;;;;;;;28.16;57.19;102019.06;4976223;28;20031;-73
2023/07/10 09:38:18;;;;;;;8.23;2.55;;;;;;;27.48;58.91;102028.94;4987628;28;20038;-74
2023/07/10 09:40:49;;;;;;;9.88;2.85;;;;;;;27.07;58.47;102027.25;4978611;28;20094;-74
2023/07/10 09:43:17;;;;;;;7.63;2.85;;;;;;;27.71;57.60;102023.50;4988746;28;20133;-73
2023/07/10 09:45:48;;;;;;;10.32;2.88;;;;;;;27.32;57.09;102019.78;4985309;28;20042;-74
2023/07/10 09:48:30;;;;;;;12.30;3.15;;;;;;;27.04;57.68;102018.47;4965801;28;20122;-72
2023/07/10 09:51:01;;;;;;;8.40;3.03;;;;;;;27.49;59.50;102022.41;4979767;28;20496;-74
2023/07/10 09:53:32;;;;;;;8.13;2.92;;;;;;;27.26;57.15;102023.22;4985144;28;20037;-75
2023/07/10 09:55:58;;;;;;;8.02;2.85;;;;;;;27.55;57.14;102017.06;4980069;28;20050;-73
2023/07/10 09:58:24;;;;;;;12.93;3.65;;;;;;;27.19;58.39;102024.09;4989063;28;20039;-74
2023/07/10 10:00:50;;;;;;;12.00;2.65;;;;;;;27.38;58.32;102023.69;4987215;28;20141;-74
2023/07/10 10:03:23;;;;;;;10.13;3.05;;;;;;;27.43;59.17;102012.19;4990080;28;20053;-74
2023/07/10 10:05:53;;;;;;;9.07;3.08;;;;;;;27.09;56.82;102008.72;4989374;28;20916;-74
2023/07/10 10:08:31;;;;;;;10.93;3.00;;;;;;;27.61;56.99;102018.22;4977054;28;20038;-73
2023/07/10 10:11:07;;;;;;;11.10;2.83;;;;;;;27.82;55.08;102018.47;4986195;28;20283;-73
2023/07/10 10:13:39;;;;;;;8.65;2.78;;;;;;;27.40;54.80;102012.53;4987116;28;20500;-74
2023/07/10 10:16:15;;;;;;;7.45;2.50;;;;;;;27.78;55.60;102010.81;4993334;28;20026;-73
2023/07/10 10:18:53;;;;;;;8.05;3.35;;;;;;;27.69;56.60;102012.69;4991808;28;20095;-73
2023/07/10 10:21:20;;;;;;;9.85;3.28;;;;;;;28.02;56.60;102015.25;4983316;28;20037;-73
2023/07/10 10:23:49;;;;;;;11.35;3.22;;;;;;;28.06;57.08;102005.59;4989475;28;20058;-74
2023/07/10 10:26:19;;;;;;;8.43;3.22;;;;;;;27.79;55.51;102007.88;4982863;28;20039;-74
2023/07/10 10:29:22;;;;;;;12.13;2.67;;;;;;;28.05;54.51;102015.72;4989681;28;20053;-74
2023/07/10 10:31:57;;;;;;;12.48;2.90;;;;;;;28.52;54.56;102009.19;4988943;28;20066;-74
2023/07/10 10:34:44;;;;;;;10.13;2.63;;;;;;;28.75;54.55;102006.34;4972729;28;21587;-73
2023/07/10 10:37:15;;;;;;;11.75;3.58;;;;;;;27.98;53.94;102016.66;4980130;28;20046;-74
2023/07/10 10:40:22;;;;;;;5.38;2.60;;;;;;;28.38;54.71;102013.59;4989635;28;21037;-73
2023/07/10 10:42:54;;;;;;;11.30;2.70;;;;;;;28.41;54.01;102020.59;4982338;28;20041;-74
2023/07/10 10:45:26;;;;;;;6.65;2.78;;;;;;;28.23;52.71;102009.94;4992226;28;20130;-73
2023/07/10 10:48:02;;;;;;;7.35;2.70;;;;;;;28.10;54.02;102005.06;4988861;28;20039;-73
2023/07/10 10:50:45;;;;;;;8.18;2.65;;;;;;;28.13;54.21;102023.03;5001382;28;20034;-74
2023/07/10 10:53:30;;;;;;;7.68;2.75;;;;;;;27.71;54.67;102032.59;4979270;28;20931;-73
2023/07/10 10:56:18;;;;;;;7.32;2.60;;;;;;;27.86;53.20;102029.91;4987500;28;20085;-74
2023/07/10 10:59:16;;;;;;;10.40;2.80;;;;;;;27.53;52.82;102029.25;4983704;28;20053;-74
2023/07/10 11:01:57;;;;;;;10.23;2.85;;;;;;;26.90;55.39;102025.53;4972448;28;20053;-73
2023/07/10 11:04:33;;;;;;;7.35;2.42;;;;;;;27.24;54.48;102024.44;4992478;28;21072;-73
2023/07/10 11:07:04;;;;;;;11.15;3.45;;;;;;;27.68;54.13;102019.22;4985552;28;20051;-73
2023/07/10 11:09:34;;;;;;;10.75;3.08;;;;;;;27.57;55.16;102014.16;4981559;28;20034;-73
2023/07/10 11:12:02;;;;;;;13.03;3.13;;;;;;;27.90;54.45;102008.47;4991277;28;20237;-73
2023/07/10 11:14:28;;;;;;;10.30;3.03;;;;;;;28.36;53.32;102009.31;4982419;28;20102;-73
2023/07/10 11:16:56;;;;;;;9.70;2.53;;;;;;;28.37;52.66;102002.81;5009877;28;20117;-73
2023/07/10 11:19:27;;;;;;;10.32;2.47;;;;;;;27.93;51.77;102019.09;4996014;28;20038;-73